Weichang, China
Current Conditions -  °F | °C
As of 12:30 PM on Sunday 21 Dec 2014 (Local Time) from ZBAA Reporting Station
Clear Clear  
Wind Chill: 22°   Ceiling: Unl
Heat Index: 34°   Visibility: 6mi
Dew Point: -2°   Wind: 20mph
Humidity: 22%   Direction: 300°WNW
Pressure: 30.33"   Gusts: NA
Location:  41.93°N, 117.75°E
Report Text: ZBAA 210430Z 30009MPS CAVOK 01/M19 Q1027 NOSIG
Loading
Personal Weather Stations






























Interactive Weather Map New forecast layout! Learn more

10-Day Weather Forecast

Advertisements
Track Severe Weather on mobile